sensor_id;sensor_type;location;lat;lon;timestamp;P1;durP1;ratioP1;P2;durP2;ratioP2
12601;SDS011;30282;16.436;99.370;2022-12-07T00:01:50;36.37;;;22.80;;
12601;SDS011;30282;16.436;99.370;2022-12-07T00:04:19;36.70;;;21.87;;
12601;SDS011;30282;16.436;99.370;2022-12-07T00:06:50;43.00;;;23.10;;
12601;SDS011;30282;16.436;99.370;2022-12-07T00:09:20;35.83;;;21.77;;
12601;SDS011;30282;16.436;99.370;2022-12-07T00:11:52;42.37;;;20.90;;
12601;SDS011;30282;16.436;99.370;2022-12-07T00:14:22;36.17;;;20.00;;
12601;SDS011;30282;16.436;99.370;2022-12-07T00:16:51;56.87;;;33.87;;
12601;SDS011;30282;16.436;99.370;2022-12-07T00:19:21;66.07;;;39.10;;
12601;SDS011;30282;16.436;99.370;2022-12-07T00:21:50;54.63;;;30.83;;
12601;SDS011;30282;16.436;99.370;2022-12-07T00:24:19;70.73;;;32.10;;
12601;SDS011;30282;16.436;99.370;2022-12-07T00:26:53;41.93;;;25.23;;
12601;SDS011;30282;16.436;99.370;2022-12-07T00:29:24;32.00;;;17.30;;
12601;SDS011;30282;16.436;99.370;2022-12-07T00:31:53;27.43;;;13.30;;
12601;SDS011;30282;16.436;99.370;2022-12-07T00:34:22;19.93;;;12.20;;
12601;SDS011;30282;16.436;99.370;2022-12-07T00:36:51;23.93;;;11.47;;
12601;SDS011;30282;16.436;99.370;2022-12-07T00:39:21;49.60;;;13.77;;
12601;SDS011;30282;16.436;99.370;2022-12-07T00:41:50;27.13;;;10.10;;
12601;SDS011;30282;16.436;99.370;2022-12-07T00:44:21;16.10;;;11.70;;
12601;SDS011;30282;16.436;99.370;2022-12-07T00:46:50;26.50;;;10.60;;
12601;SDS011;30282;16.436;99.370;2022-12-07T00:49:20;19.10;;;11.00;;
12601;SDS011;30282;16.436;99.370;2022-12-07T00:51:49;21.27;;;10.13;;
12601;SDS011;30282;16.436;99.370;2022-12-07T00:54:18;19.00;;;9.60;;
12601;SDS011;30282;16.436;99.370;2022-12-07T00:56:48;18.83;;;10.87;;
12601;SDS011;30282;16.436;99.370;2022-12-07T00:59:20;17.37;;;10.00;;
12601;SDS011;30282;16.436;99.370;2022-12-07T01:01:50;15.70;;;9.43;;
12601;SDS011;30282;16.436;99.370;2022-12-07T01:04:20;20.03;;;10.00;;
12601;SDS011;30282;16.436;99.370;2022-12-07T01:06:49;22.83;;;9.87;;
12601;SDS011;30282;16.436;99.370;2022-12-07T01:09:18;18.77;;;9.80;;
12601;SDS011;30282;16.436;99.370;2022-12-07T01:11:47;17.97;;;10.50;;
12601;SDS011;30282;16.436;99.370;2022-12-07T01:14:18;16.50;;;9.87;;
12601;SDS011;30282;16.436;99.370;2022-12-07T01:16:49;16.60;;;10.53;;
12601;SDS011;30282;16.436;99.370;2022-12-07T01:19:18;16.17;;;9.43;;
12601;SDS011;30282;16.436;99.370;2022-12-07T01:21:47;14.63;;;8.73;;
12601;SDS011;30282;16.436;99.370;2022-12-07T01:24:16;17.10;;;9.70;;
12601;SDS011;30282;16.436;99.370;2022-12-07T01:26:48;16.47;;;9.60;;
12601;SDS011;30282;16.436;99.370;2022-12-07T01:29:17;21.93;;;9.50;;
12601;SDS011;30282;16.436;99.370;2022-12-07T01:31:48;19.13;;;10.00;;
12601;SDS011;30282;16.436;99.370;2022-12-07T01:34:17;23.47;;;10.10;;
12601;SDS011;30282;16.436;99.370;2022-12-07T01:36:47;17.17;;;9.53;;
12601;SDS011;30282;16.436;99.370;2022-12-07T01:50:12;16.87;;;11.97;;
12601;SDS011;30282;16.436;99.370;2022-12-07T01:52:42;15.77;;;10.70;;
12601;SDS011;30282;16.436;99.370;2022-12-07T01:55:14;22.50;;;13.23;;
12601;SDS011;30282;16.436;99.370;2022-12-07T01:57:45;20.43;;;11.90;;
12601;SDS011;30282;16.436;99.370;2022-12-07T02:00:16;18.53;;;11.07;;
12601;SDS011;30282;16.436;99.370;2022-12-07T02:02:47;24.43;;;12.30;;
12601;SDS011;30282;16.436;99.370;2022-12-07T02:05:21;25.03;;;13.47;;
12601;SDS011;30282;16.436;99.370;2022-12-07T02:07:52;33.80;;;13.93;;
12601;SDS011;30282;16.436;99.370;2022-12-07T02:10:23;40.80;;;15.07;;
12601;SDS011;30282;16.436;99.370;2022-12-07T02:12:55;26.80;;;17.13;;
12601;SDS011;30282;16.436;99.370;2022-12-07T02:15:27;91.73;;;19.77;;
12601;SDS011;30282;16.436;99.370;2022-12-07T02:18:05;41.77;;;16.17;;
12601;SDS011;30282;16.436;99.370;2022-12-07T02:20:41;83.40;;;18.43;;
12601;SDS011;30282;16.436;99.370;2022-12-07T02:29:32;20.33;;;12.50;;
12601;SDS011;30282;16.436;99.370;2022-12-07T02:32:06;22.70;;;12.20;;
12601;SDS011;30282;16.436;99.370;2022-12-07T02:34:45;18.00;;;13.17;;
12601;SDS011;30282;16.436;99.370;2022-12-07T02:37:20;24.60;;;11.63;;
12601;SDS011;30282;16.436;99.370;2022-12-07T02:39:58;16.70;;;10.33;;
12601;SDS011;30282;16.436;99.370;2022-12-07T02:42:33;17.63;;;10.57;;
12601;SDS011;30282;16.436;99.370;2022-12-07T02:45:08;24.97;;;11.93;;
12601;SDS011;30282;16.436;99.370;2022-12-07T02:47:41;29.97;;;9.33;;
12601;SDS011;30282;16.436;99.370;2022-12-07T02:50:11;22.63;;;10.17;;
12601;SDS011;30282;16.436;99.370;2022-12-07T02:52:40;17.20;;;9.60;;
12601;SDS011;30282;16.436;99.370;2022-12-07T02:55:10;14.50;;;9.23;;
12601;SDS011;30282;16.436;99.370;2022-12-07T02:57:54;15.60;;;8.70;;
12601;SDS011;30282;16.436;99.370;2022-12-07T03:00:42;23.90;;;9.53;;
12601;SDS011;30282;16.436;99.370;2022-12-07T03:03:19;20.60;;;9.20;;
12601;SDS011;30282;16.436;99.370;2022-12-07T03:05:54;21.53;;;8.90;;
12601;SDS011;30282;16.436;99.370;2022-12-07T03:08:37;12.73;;;8.63;;
12601;SDS011;30282;16.436;99.370;2022-12-07T03:11:13;12.37;;;8.83;;
12601;SDS011;30282;16.436;99.370;2022-12-07T03:13:46;13.57;;;8.60;;
12601;SDS011;30282;16.436;99.370;2022-12-07T03:16:21;14.33;;;8.20;;
12601;SDS011;30282;16.436;99.370;2022-12-07T03:18:56;16.53;;;8.37;;
12601;SDS011;30282;16.436;99.370;2022-12-07T03:21:31;19.83;;;12.00;;
12601;SDS011;30282;16.436;99.370;2022-12-07T03:24:03;17.30;;;9.03;;
12601;SDS011;30282;16.436;99.370;2022-12-07T03:26:37;64.57;;;31.83;;
12601;SDS011;30282;16.436;99.370;2022-12-07T03:29:10;24.57;;;12.10;;
12601;SDS011;30282;16.436;99.370;2022-12-07T03:31:54;20.63;;;12.20;;
12601;SDS011;30282;16.436;99.370;2022-12-07T03:34:27;15.43;;;7.80;;
12601;SDS011;30282;16.436;99.370;2022-12-07T03:37:00;12.40;;;7.57;;
12601;SDS011;30282;16.436;99.370;2022-12-07T03:39:34;12.77;;;8.40;;
12601;SDS011;30282;16.436;99.370;2022-12-07T03:42:07;11.23;;;7.77;;
12601;SDS011;30282;16.436;99.370;2022-12-07T03:44:38;22.93;;;9.20;;
12601;SDS011;30282;16.436;99.370;2022-12-07T03:47:11;11.57;;;7.60;;
12601;SDS011;30282;16.436;99.370;2022-12-07T03:49:49;16.40;;;8.17;;
12601;SDS011;30282;16.436;99.370;2022-12-07T03:52:22;23.20;;;10.30;;
12601;SDS011;30282;16.436;99.370;2022-12-07T03:54:55;13.27;;;7.87;;
12601;SDS011;30282;16.436;99.370;2022-12-07T03:57:28;17.90;;;8.83;;
12601;SDS011;30282;16.436;99.370;2022-12-07T04:00:03;14.87;;;8.33;;
12601;SDS011;30282;16.436;99.370;2022-12-07T04:02:36;16.67;;;8.43;;
12601;SDS011;30282;16.436;99.370;2022-12-07T04:05:06;19.87;;;8.83;;
12601;SDS011;30282;16.436;99.370;2022-12-07T04:07:37;18.83;;;9.00;;
12601;SDS011;30282;16.436;99.370;2022-12-07T04:10:07;17.53;;;7.80;;
12601;SDS011;30282;16.436;99.370;2022-12-07T04:12:36;13.43;;;8.10;;
12601;SDS011;30282;16.436;99.370;2022-12-07T04:15:08;18.13;;;8.60;;
12601;SDS011;30282;16.436;99.370;2022-12-07T05:08:49;13.53;;;7.33;;
12601;SDS011;30282;16.436;99.370;2022-12-07T05:11:19;9.90;;;6.20;;
12601;SDS011;30282;16.436;99.370;2022-12-07T05:14:07;9.70;;;6.43;;
12601;SDS011;30282;16.436;99.370;2022-12-07T05:16:38;9.80;;;5.83;;
12601;SDS011;30282;16.436;99.370;2022-12-07T05:19:08;10.40;;;6.10;;
12601;SDS011;30282;16.436;99.370;2022-12-07T05:21:38;8.37;;;5.50;;
12601;SDS011;30282;16.436;99.370;2022-12-07T05:24:10;8.87;;;5.93;;
12601;SDS011;30282;16.436;99.370;2022-12-07T05:26:41;11.20;;;5.10;;
12601;SDS011;30282;16.436;99.370;2022-12-07T05:29:11;13.70;;;5.00;;
12601;SDS011;30282;16.436;99.370;2022-12-07T05:31:41;8.83;;;4.73;;
12601;SDS011;30282;16.436;99.370;2022-12-07T05:34:11;37.63;;;6.77;;
12601;SDS011;30282;16.436;99.370;2022-12-07T05:36:40;10.23;;;5.40;;
12601;SDS011;30282;16.436;99.370;2022-12-07T05:39:12;17.33;;;5.40;;
12601;SDS011;30282;16.436;99.370;2022-12-07T05:41:41;7.53;;;4.67;;
12601;SDS011;30282;16.436;99.370;2022-12-07T05:44:26;13.03;;;6.10;;
12601;SDS011;30282;16.436;99.370;2022-12-07T05:46:55;7.50;;;4.80;;
12601;SDS011;30282;16.436;99.370;2022-12-07T05:49:24;10.13;;;5.60;;
12601;SDS011;30282;16.436;99.370;2022-12-07T05:51:53;17.53;;;6.10;;
12601;SDS011;30282;16.436;99.370;2022-12-07T05:54:24;12.00;;;5.83;;
12601;SDS011;30282;16.436;99.370;2022-12-07T05:56:53;7.70;;;5.40;;
12601;SDS011;30282;16.436;99.370;2022-12-07T05:59:22;6.63;;;5.17;;
12601;SDS011;30282;16.436;99.370;2022-12-07T06:01:50;9.30;;;6.13;;
12601;SDS011;30282;16.436;99.370;2022-12-07T06:04:20;10.90;;;5.60;;
12601;SDS011;30282;16.436;99.370;2022-12-07T06:06:50;16.27;;;6.50;;
12601;SDS011;30282;16.436;99.370;2022-12-07T06:09:19;8.33;;;5.87;;
12601;SDS011;30282;16.436;99.370;2022-12-07T06:11:51;10.93;;;6.23;;
12601;SDS011;30282;16.436;99.370;2022-12-07T06:14:38;24.03;;;6.40;;
12601;SDS011;30282;16.436;99.370;2022-12-07T06:17:07;11.13;;;6.30;;
12601;SDS011;30282;16.436;99.370;2022-12-07T06:19:36;8.27;;;5.60;;
12601;SDS011;30282;16.436;99.370;2022-12-07T06:22:05;7.03;;;5.37;;
12601;SDS011;30282;16.436;99.370;2022-12-07T06:24:34;12.93;;;5.80;;
12601;SDS011;30282;16.436;99.370;2022-12-07T06:27:06;8.67;;;5.70;;
12601;SDS011;30282;16.436;99.370;2022-12-07T06:29:35;9.47;;;5.53;;
12601;SDS011;30282;16.436;99.370;2022-12-07T06:32:05;15.27;;;5.50;;
12601;SDS011;30282;16.436;99.370;2022-12-07T06:34:35;11.37;;;5.30;;
12601;SDS011;30282;16.436;99.370;2022-12-07T06:37:04;7.53;;;5.27;;
12601;SDS011;30282;16.436;99.370;2022-12-07T06:39:33;9.30;;;5.80;;
12601;SDS011;30282;16.436;99.370;2022-12-07T06:42:02;10.67;;;6.10;;
12601;SDS011;30282;16.436;99.370;2022-12-07T06:44:33;7.87;;;5.50;;
12601;SDS011;30282;16.436;99.370;2022-12-07T06:47:02;8.80;;;5.87;;
12601;SDS011;30282;16.436;99.370;2022-12-07T06:49:33;15.10;;;5.93;;
12601;SDS011;30282;16.436;99.370;2022-12-07T06:52:03;7.97;;;5.80;;
12601;SDS011;30282;16.436;99.370;2022-12-07T06:54:33;8.43;;;5.23;;
12601;SDS011;30282;16.436;99.370;2022-12-07T06:57:07;15.53;;;5.37;;
12601;SDS011;30282;16.436;99.370;2022-12-07T06:59:39;7.70;;;5.53;;
12601;SDS011;30282;16.436;99.370;2022-12-07T07:02:09;8.80;;;5.23;;
12601;SDS011;30282;16.436;99.370;2022-12-07T07:04:38;13.40;;;5.40;;
12601;SDS011;30282;16.436;99.370;2022-12-07T07:07:07;8.47;;;5.20;;
12601;SDS011;30282;16.436;99.370;2022-12-07T07:09:36;7.77;;;5.50;;
12601;SDS011;30282;16.436;99.370;2022-12-07T07:12:05;7.00;;;4.63;;
12601;SDS011;30282;16.436;99.370;2022-12-07T07:14:34;13.53;;;5.10;;
12601;SDS011;30282;16.436;99.370;2022-12-07T07:17:05;9.70;;;5.20;;
12601;SDS011;30282;16.436;99.370;2022-12-07T07:19:34;7.70;;;5.43;;
12601;SDS011;30282;16.436;99.370;2022-12-07T07:22:03;9.53;;;5.57;;
12601;SDS011;30282;16.436;99.370;2022-12-07T07:24:32;12.90;;;4.93;;
12601;SDS011;30282;16.436;99.370;2022-12-07T07:27:01;14.50;;;5.80;;
12601;SDS011;30282;16.436;99.370;2022-12-07T07:29:30;15.60;;;5.70;;
12601;SDS011;30282;16.436;99.370;2022-12-07T07:31:59;9.13;;;5.93;;
12601;SDS011;30282;16.436;99.370;2022-12-07T07:34:30;15.57;;;6.00;;
12601;SDS011;30282;16.436;99.370;2022-12-07T07:37:01;11.30;;;5.40;;
12601;SDS011;30282;16.436;99.370;2022-12-07T07:39:30;14.07;;;5.93;;
12601;SDS011;30282;16.436;99.370;2022-12-07T07:42:02;15.37;;;6.60;;
12601;SDS011;30282;16.436;99.370;2022-12-07T07:44:31;14.30;;;7.57;;
12601;SDS011;30282;16.436;99.370;2022-12-07T07:47:01;21.60;;;8.77;;
12601;SDS011;30282;16.436;99.370;2022-12-07T07:49:33;19.70;;;9.77;;
12601;SDS011;30282;16.436;99.370;2022-12-07T07:52:02;15.50;;;9.50;;
12601;SDS011;30282;16.436;99.370;2022-12-07T07:54:32;15.97;;;10.00;;
12601;SDS011;30282;16.436;99.370;2022-12-07T07:57:01;20.43;;;8.97;;
12601;SDS011;30282;16.436;99.370;2022-12-07T07:59:32;15.73;;;8.90;;
12601;SDS011;30282;16.436;99.370;2022-12-07T08:02:01;16.27;;;9.47;;
12601;SDS011;30282;16.436;99.370;2022-12-07T08:04:30;17.10;;;9.20;;
12601;SDS011;30282;16.436;99.370;2022-12-07T08:07:01;19.30;;;13.10;;
12601;SDS011;30282;16.436;99.370;2022-12-07T08:09:30;24.10;;;9.60;;
12601;SDS011;30282;16.436;99.370;2022-12-07T08:11:59;27.43;;;9.70;;
12601;SDS011;30282;16.436;99.370;2022-12-07T08:14:28;12.73;;;6.83;;
12601;SDS011;30282;16.436;99.370;2022-12-07T08:16:58;13.70;;;7.90;;
12601;SDS011;30282;16.436;99.370;2022-12-07T08:19:28;15.00;;;7.10;;
12601;SDS011;30282;16.436;99.370;2022-12-07T08:22:00;9.90;;;6.27;;
12601;SDS011;30282;16.436;99.370;2022-12-07T08:24:29;10.67;;;7.93;;
12601;SDS011;30282;16.436;99.370;2022-12-07T08:27:01;14.30;;;9.13;;
12601;SDS011;30282;16.436;99.370;2022-12-07T08:29:31;16.47;;;8.57;;
12601;SDS011;30282;16.436;99.370;2022-12-07T08:32:00;17.57;;;8.50;;
12601;SDS011;30282;16.436;99.370;2022-12-07T08:34:29;11.77;;;6.93;;
12601;SDS011;30282;16.436;99.370;2022-12-07T08:37:00;17.03;;;6.90;;
12601;SDS011;30282;16.436;99.370;2022-12-07T08:39:29;16.47;;;11.33;;
12601;SDS011;30282;16.436;99.370;2022-12-07T08:41:59;16.13;;;8.70;;
12601;SDS011;30282;16.436;99.370;2022-12-07T08:44:28;10.60;;;7.13;;
12601;SDS011;30282;16.436;99.370;2022-12-07T08:46:58;18.67;;;7.80;;
12601;SDS011;30282;16.436;99.370;2022-12-07T08:49:31;13.70;;;8.00;;
12601;SDS011;30282;16.436;99.370;2022-12-07T09:04:53;15.67;;;7.57;;
12601;SDS011;30282;16.436;99.370;2022-12-07T09:07:26;11.67;;;7.70;;
12601;SDS011;30282;16.436;99.370;2022-12-07T09:09:55;29.33;;;11.97;;
12601;SDS011;30282;16.436;99.370;2022-12-07T09:12:25;19.10;;;11.10;;
12601;SDS011;30282;16.436;99.370;2022-12-07T09:14:54;15.43;;;7.87;;
12601;SDS011;30282;16.436;99.370;2022-12-07T09:17:23;18.07;;;7.27;;
12601;SDS011;30282;16.436;99.370;2022-12-07T09:19:54;12.27;;;7.10;;
12601;SDS011;30282;16.436;99.370;2022-12-07T09:22:23;11.30;;;6.53;;
12601;SDS011;30282;16.436;99.370;2022-12-07T09:24:55;15.20;;;6.03;;
12601;SDS011;30282;16.436;99.370;2022-12-07T09:27:25;19.53;;;6.40;;
12601;SDS011;30282;16.436;99.370;2022-12-07T09:29:58;12.37;;;6.73;;
12601;SDS011;30282;16.436;99.370;2022-12-07T09:32:27;30.40;;;7.10;;
12601;SDS011;30282;16.436;99.370;2022-12-07T09:34:59;13.17;;;6.90;;
12601;SDS011;30282;16.436;99.370;2022-12-07T09:37:29;20.00;;;6.60;;
12601;SDS011;30282;16.436;99.370;2022-12-07T09:40:01;17.47;;;7.03;;
12601;SDS011;30282;16.436;99.370;2022-12-07T09:42:32;13.50;;;7.63;;
12601;SDS011;30282;16.436;99.370;2022-12-07T09:45:05;14.83;;;7.63;;
12601;SDS011;30282;16.436;99.370;2022-12-07T09:47:39;11.10;;;7.20;;
12601;SDS011;30282;16.436;99.370;2022-12-07T09:50:14;12.13;;;6.80;;
12601;SDS011;30282;16.436;99.370;2022-12-07T09:52:45;10.40;;;7.07;;
12601;SDS011;30282;16.436;99.370;2022-12-07T09:55:16;14.10;;;8.20;;
12601;SDS011;30282;16.436;99.370;2022-12-07T09:57:51;13.03;;;8.13;;
12601;SDS011;30282;16.436;99.370;2022-12-07T10:00:21;12.50;;;8.20;;
12601;SDS011;30282;16.436;99.370;2022-12-07T10:02:55;17.87;;;8.10;;
12601;SDS011;30282;16.436;99.370;2022-12-07T10:05:28;13.73;;;9.00;;
12601;SDS011;30282;16.436;99.370;2022-12-07T10:08:01;15.10;;;8.17;;
12601;SDS011;30282;16.436;99.370;2022-12-07T10:10:31;19.00;;;9.17;;
12601;SDS011;30282;16.436;99.370;2022-12-07T10:13:04;14.73;;;9.30;;
12601;SDS011;30282;16.436;99.370;2022-12-07T10:15:41;17.13;;;10.10;;
12601;SDS011;30282;16.436;99.370;2022-12-07T10:18:18;19.23;;;11.00;;
12601;SDS011;30282;16.436;99.370;2022-12-07T10:21:03;19.10;;;11.80;;
12601;SDS011;30282;16.436;99.370;2022-12-07T10:24:00;27.03;;;11.90;;
12601;SDS011;30282;16.436;99.370;2022-12-07T10:26:32;23.53;;;11.43;;
12601;SDS011;30282;16.436;99.370;2022-12-07T10:29:04;20.87;;;12.73;;
12601;SDS011;30282;16.436;99.370;2022-12-07T10:31:43;22.93;;;12.43;;
12601;SDS011;30282;16.436;99.370;2022-12-07T10:34:20;29.53;;;14.37;;
12601;SDS011;30282;16.436;99.370;2022-12-07T10:36:53;28.10;;;15.47;;
12601;SDS011;30282;16.436;99.370;2022-12-07T10:39:40;29.33;;;15.80;;
12601;SDS011;30282;16.436;99.370;2022-12-07T10:42:20;25.60;;;15.03;;
12601;SDS011;30282;16.436;99.370;2022-12-07T10:44:50;25.53;;;16.07;;
12601;SDS011;30282;16.436;99.370;2022-12-07T10:47:40;32.40;;;17.60;;
12601;SDS011;30282;16.436;99.370;2022-12-07T10:50:18;39.43;;;20.00;;
12601;SDS011;30282;16.436;99.370;2022-12-07T10:53:19;34.57;;;16.93;;
12601;SDS011;30282;16.436;99.370;2022-12-07T10:56:06;28.80;;;16.60;;
12601;SDS011;30282;16.436;99.370;2022-12-07T10:58:59;32.80;;;20.50;;
12601;SDS011;30282;16.436;99.370;2022-12-07T11:01:49;36.73;;;20.60;;
12601;SDS011;30282;16.436;99.370;2022-12-07T11:04:24;36.90;;;23.80;;
12601;SDS011;30282;16.436;99.370;2022-12-07T11:07:06;46.73;;;23.13;;
12601;SDS011;30282;16.436;99.370;2022-12-07T11:09:47;39.40;;;21.13;;
12601;SDS011;30282;16.436;99.370;2022-12-07T11:12:31;37.07;;;18.83;;
12601;SDS011;30282;16.436;99.370;2022-12-07T11:15:10;35.27;;;16.30;;
12601;SDS011;30282;16.436;99.370;2022-12-07T11:17:47;26.23;;;16.07;;
12601;SDS011;30282;16.436;99.370;2022-12-07T11:20:27;34.33;;;17.40;;
12601;SDS011;30282;16.436;99.370;2022-12-07T11:23:11;32.80;;;15.77;;
12601;SDS011;30282;16.436;99.370;2022-12-07T11:25:50;32.03;;;15.70;;
12601;SDS011;30282;16.436;99.370;2022-12-07T11:28:29;29.40;;;16.70;;
12601;SDS011;30282;16.436;99.370;2022-12-07T11:31:10;33.73;;;21.40;;
12601;SDS011;30282;16.436;99.370;2022-12-07T11:33:46;35.50;;;21.90;;
12601;SDS011;30282;16.436;99.370;2022-12-07T11:36:26;39.80;;;27.70;;
12601;SDS011;30282;16.436;99.370;2022-12-07T11:39:23;48.57;;;32.77;;
12601;SDS011;30282;16.436;99.370;2022-12-07T11:42:00;38.27;;;27.40;;
12601;SDS011;30282;16.436;99.370;2022-12-07T11:44:34;41.43;;;25.70;;
12601;SDS011;30282;16.436;99.370;2022-12-07T11:47:13;36.37;;;22.63;;
12601;SDS011;30282;16.436;99.370;2022-12-07T11:49:51;48.80;;;28.30;;
12601;SDS011;30282;16.436;99.370;2022-12-07T11:52:27;47.90;;;22.57;;
12601;SDS011;30282;16.436;99.370;2022-12-07T11:55:00;30.60;;;17.70;;
12601;SDS011;30282;16.436;99.370;2022-12-07T11:57:36;28.70;;;18.60;;
12601;SDS011;30282;16.436;99.370;2022-12-07T12:00:12;27.33;;;15.47;;
12601;SDS011;30282;16.436;99.370;2022-12-07T12:02:43;25.27;;;15.33;;
12601;SDS011;30282;16.436;99.370;2022-12-07T12:05:19;26.80;;;15.70;;
12601;SDS011;30282;16.436;99.370;2022-12-07T12:07:51;23.97;;;16.20;;
12601;SDS011;30282;16.436;99.370;2022-12-07T12:10:27;24.80;;;17.30;;
12601;SDS011;30282;16.436;99.370;2022-12-07T12:13:27;27.70;;;15.67;;
12601;SDS011;30282;16.436;99.370;2022-12-07T12:16:19;25.47;;;15.00;;
12601;SDS011;30282;16.436;99.370;2022-12-07T12:19:16;17.00;;;11.80;;
12601;SDS011;30282;16.436;99.370;2022-12-07T12:21:53;18.10;;;10.50;;
12601;SDS011;30282;16.436;99.370;2022-12-07T12:24:28;22.03;;;12.63;;
12601;SDS011;30282;16.436;99.370;2022-12-07T12:27:03;19.20;;;11.83;;
12601;SDS011;30282;16.436;99.370;2022-12-07T12:29:41;20.63;;;11.77;;
12601;SDS011;30282;16.436;99.370;2022-12-07T12:32:13;18.17;;;11.20;;
12601;SDS011;30282;16.436;99.370;2022-12-07T12:34:58;20.83;;;11.70;;
12601;SDS011;30282;16.436;99.370;2022-12-07T12:37:39;19.47;;;11.40;;
12601;SDS011;30282;16.436;99.370;2022-12-07T12:55:17;39.20;;;17.90;;
12601;SDS011;30282;16.436;99.370;2022-12-07T13:04:03;29.43;;;16.90;;
12601;SDS011;30282;16.436;99.370;2022-12-07T13:06:57;30.73;;;17.60;;
12601;SDS011;30282;16.436;99.370;2022-12-07T13:09:27;30.10;;;17.00;;
12601;SDS011;30282;16.436;99.370;2022-12-07T13:12:00;27.57;;;17.60;;
12601;SDS011;30282;16.436;99.370;2022-12-07T13:20:49;26.63;;;16.80;;
12601;SDS011;30282;16.436;99.370;2022-12-07T13:23:33;31.53;;;19.00;;
12601;SDS011;30282;16.436;99.370;2022-12-07T13:26:15;36.87;;;19.13;;
12601;SDS011;30282;16.436;99.370;2022-12-07T13:28:46;33.70;;;18.67;;
12601;SDS011;30282;16.436;99.370;2022-12-07T13:31:19;32.60;;;18.93;;
12601;SDS011;30282;16.436;99.370;2022-12-07T13:33:53;33.77;;;18.00;;
12601;SDS011;30282;16.436;99.370;2022-12-07T13:36:24;29.60;;;18.00;;
12601;SDS011;30282;16.436;99.370;2022-12-07T13:38:57;27.43;;;17.57;;
12601;SDS011;30282;16.436;99.370;2022-12-07T13:41:27;22.57;;;16.47;;
12601;SDS011;30282;16.436;99.370;2022-12-07T13:44:01;26.00;;;15.63;;
12601;SDS011;30282;16.436;99.370;2022-12-07T13:46:41;28.70;;;15.33;;
12601;SDS011;30282;16.436;99.370;2022-12-07T13:49:16;28.47;;;17.53;;
12601;SDS011;30282;16.436;99.370;2022-12-07T13:51:48;28.13;;;17.83;;
12601;SDS011;30282;16.436;99.370;2022-12-07T13:54:18;27.23;;;17.47;;
12601;SDS011;30282;16.436;99.370;2022-12-07T13:56:49;33.93;;;17.67;;
12601;SDS011;30282;16.436;99.370;2022-12-07T13:59:20;32.13;;;19.27;;
12601;SDS011;30282;16.436;99.370;2022-12-07T14:01:51;31.97;;;21.07;;
12601;SDS011;30282;16.436;99.370;2022-12-07T14:07:20;35.37;;;20.00;;
12601;SDS011;30282;16.436;99.370;2022-12-07T14:09:54;35.10;;;22.10;;
12601;SDS011;30282;16.436;99.370;2022-12-07T14:12:25;33.77;;;20.87;;
12601;SDS011;30282;16.436;99.370;2022-12-07T14:14:55;31.63;;;19.57;;
12601;SDS011;30282;16.436;99.370;2022-12-07T14:17:25;33.60;;;20.23;;
12601;SDS011;30282;16.436;99.370;2022-12-07T14:19:55;32.57;;;20.47;;
12601;SDS011;30282;16.436;99.370;2022-12-07T14:22:31;33.17;;;19.80;;
12601;SDS011;30282;16.436;99.370;2022-12-07T14:25:02;40.30;;;21.73;;
12601;SDS011;30282;16.436;99.370;2022-12-07T14:27:55;36.57;;;19.87;;
12601;SDS011;30282;16.436;99.370;2022-12-07T14:30:26;34.13;;;20.67;;
12601;SDS011;30282;16.436;99.370;2022-12-07T14:32:57;32.90;;;20.70;;
12601;SDS011;30282;16.436;99.370;2022-12-07T14:35:27;26.70;;;18.57;;
12601;SDS011;30282;16.436;99.370;2022-12-07T14:37:59;31.43;;;19.20;;
12601;SDS011;30282;16.436;99.370;2022-12-07T14:40:29;33.73;;;18.80;;
12601;SDS011;30282;16.436;99.370;2022-12-07T14:43:00;33.73;;;19.83;;
12601;SDS011;30282;16.436;99.370;2022-12-07T14:45:31;35.27;;;19.07;;
12601;SDS011;30282;16.436;99.370;2022-12-07T14:48:00;31.17;;;19.10;;
12601;SDS011;30282;16.436;99.370;2022-12-07T14:50:29;28.73;;;16.20;;
12601;SDS011;30282;16.436;99.370;2022-12-07T14:53:06;23.53;;;15.90;;
12601;SDS011;30282;16.436;99.370;2022-12-07T14:55:41;28.03;;;15.43;;
12601;SDS011;30282;16.436;99.370;2022-12-07T14:58:12;22.87;;;14.30;;
12601;SDS011;30282;16.436;99.370;2022-12-07T15:00:42;21.73;;;14.63;;
12601;SDS011;30282;16.436;99.370;2022-12-07T15:03:13;21.63;;;14.60;;
12601;SDS011;30282;16.436;99.370;2022-12-07T15:05:42;19.07;;;13.20;;
12601;SDS011;30282;16.436;99.370;2022-12-07T15:08:13;23.43;;;13.77;;
12601;SDS011;30282;16.436;99.370;2022-12-07T15:10:43;20.37;;;12.30;;
12601;SDS011;30282;16.436;99.370;2022-12-07T15:13:13;18.77;;;11.90;;
12601;SDS011;30282;16.436;99.370;2022-12-07T15:15:59;22.43;;;12.90;;
12601;SDS011;30282;16.436;99.370;2022-12-07T15:18:28;27.03;;;12.77;;
12601;SDS011;30282;16.436;99.370;2022-12-07T15:20:57;21.70;;;13.63;;
12601;SDS011;30282;16.436;99.370;2022-12-07T15:23:28;19.27;;;12.60;;
12601;SDS011;30282;16.436;99.370;2022-12-07T15:25:58;33.37;;;14.00;;
12601;SDS011;30282;16.436;99.370;2022-12-07T15:28:27;25.30;;;12.60;;
12601;SDS011;30282;16.436;99.370;2022-12-07T15:30:56;19.47;;;13.43;;
12601;SDS011;30282;16.436;99.370;2022-12-07T15:33:25;22.03;;;13.60;;
12601;SDS011;30282;16.436;99.370;2022-12-07T15:35:54;21.00;;;13.57;;
12601;SDS011;30282;16.436;99.370;2022-12-07T15:38:23;22.40;;;13.60;;
12601;SDS011;30282;16.436;99.370;2022-12-07T15:40:54;22.30;;;13.90;;
12601;SDS011;30282;16.436;99.370;2022-12-07T15:43:23;19.40;;;14.17;;
12601;SDS011;30282;16.436;99.370;2022-12-07T15:46:09;25.23;;;15.00;;
12601;SDS011;30282;16.436;99.370;2022-12-07T15:48:38;29.73;;;13.67;;
12601;SDS011;30282;16.436;99.370;2022-12-07T15:51:11;22.33;;;13.90;;
12601;SDS011;30282;16.436;99.370;2022-12-07T15:53:47;21.70;;;14.40;;
12601;SDS011;30282;16.436;99.370;2022-12-07T15:56:17;28.63;;;13.40;;
12601;SDS011;30282;16.436;99.370;2022-12-07T15:58:46;24.30;;;13.50;;
12601;SDS011;30282;16.436;99.370;2022-12-07T16:01:16;20.80;;;12.87;;
12601;SDS011;30282;16.436;99.370;2022-12-07T16:03:45;17.57;;;12.80;;
12601;SDS011;30282;16.436;99.370;2022-12-07T16:06:15;21.17;;;11.70;;
12601;SDS011;30282;16.436;99.370;2022-12-07T16:08:45;24.03;;;12.13;;
12601;SDS011;30282;16.436;99.370;2022-12-07T16:11:14;18.10;;;11.40;;
12601;SDS011;30282;16.436;99.370;2022-12-07T16:13:46;22.50;;;10.07;;
12601;SDS011;30282;16.436;99.370;2022-12-07T16:16:15;15.03;;;9.20;;
12601;SDS011;30282;16.436;99.370;2022-12-07T16:18:48;12.50;;;9.57;;
12601;SDS011;30282;16.436;99.370;2022-12-07T16:21:17;18.93;;;9.13;;
12601;SDS011;30282;16.436;99.370;2022-12-07T16:23:47;16.43;;;9.77;;
12601;SDS011;30282;16.436;99.370;2022-12-07T16:26:19;18.27;;;11.33;;
12601;SDS011;30282;16.436;99.370;2022-12-07T16:28:50;19.63;;;9.87;;
12601;SDS011;30282;16.436;99.370;2022-12-07T16:31:21;16.57;;;8.50;;
12601;SDS011;30282;16.436;99.370;2022-12-07T16:33:52;17.50;;;8.80;;
12601;SDS011;30282;16.436;99.370;2022-12-07T16:36:22;14.17;;;8.30;;
12601;SDS011;30282;16.436;99.370;2022-12-07T16:38:54;14.23;;;9.50;;
12601;SDS011;30282;16.436;99.370;2022-12-07T16:41:27;14.53;;;9.20;;